Airfield :
LOGIN :

Register | Disclaimer

   EN    FR    IT 

 










Legend :    VFR   Marginal VFR   IFR   Intensive IFR   Very Intensive IFR
Visi :
Ceiling :
>= 8 km
>= 3000ft
5 to 8 km
1000 to 3000 ft
1500m to 5 km
500 to 1000 ft
800 to 1500m
200 to 500 ft
< 800m
< 200 ft
Symbols :   Thunderstorms  Fog  Heavy snow  Heavy precipitations  Wind > 20 kt
SIGMETs :     Misc.  Thunderstorms  Icing  Turbulence  Mountain Waves  Volcanic Ashes






- Airport Elevation : 26 ft
- IATA code : GLA


EGPF - Glasgow

CURRENT METAR :
  • 160420Z AUTO VRB03KT 9999 -RA OVC014/// //////TCU 04/03 Q1007

EXPIRED METARs :
  • 160350Z AUTO 09005KT 8000 -RA OVC014/// //////CB 04/03 Q1008 RERA
  • 160320Z AUTO 08007KT 060V130 4700 -RA OVC012/// //////CB 03/02 Q1009 RERA
  • 160250Z AUTO 09008KT 070V130 3900 RA OVC013/// //////CB 03/02 Q1010
  • 160220Z AUTO 11009KT 080V150 5000 -RA OVC014/// //////CB 03/02 Q1011 RERA
  • 160150Z AUTO 13010KT 4700 RA BKN014/// OVC023/// //////CB 03/02 Q1012

TAF AMD TAF EGPF
Valid from the 16 at 03:00 until the 17 at 00:00 UTC


160329Z 1603/1624 10009KT 9999 SCT018
BECMG 1603/1606 16012KT
TEMPO 1603/1608 7000 -RA BKN012
PROB30
TEMPO 1603/1608 18018G28KT 3000 RADZ BKN008
BECMG 1606/1609 24012KT
PROB40
TEMPO 1608/1624 26017G27KT 6000 SHRA BKN010
ATIS : +44 141 887 7449



MET'MAP, your aeronautical weather chart ! - Copyright ORBIFLY December 2007 - Disclaimer

ORBIFLY MET'MAP TEAM :

Programming & Development : Alexandra Zaïnal
Concept & original design : Baudouin d'Aumeries
Assistance for programming : Marc-Olivier Méhu
Technical & hardware support : Manuel Goepfert

Contact : metmap@orbifly.com




SOURCES & CREDITS :

   NOAA